Terminal Aerodrome Forecast
Issued by NWS

Home | Current Version | Previous Version | Text Only | Print | Product List | Glossary On
Versions: 1 2 3 4 5 6 7 8 9 10 11 12 13 14 15 16 17 18 19 20 21 22 23 24 25 26 27 28 29 30
134
FTUS46 KPDT 211738
TAFDLS
TAF
KDLS 211738Z 2118/2218 30010KT P6SM -SHRA BKN035 OVC045
     FM212100 30015G25KT P6SM VCSH BKN050
     FM220200 30012KT P6SM SCT050=

USA.gov is the U.S. government's official web portal to all federal, state and local government web resources and services.